Time;durP1;ratioP1;P1;durP2;ratioP2;P2;SDS_P1;SDS_P2;PMS_P1;PMS_P2;Temp;Humidity;BMP_temperature;BMP_pressure;BME280_temperature;BME280_humidity;BME280_pressure;Samples;Min_cycle;Max_cycle;Signal;HPM_P1;HPM_P2
2021/07/05 00:01:32;;;;;;;1.60;1.60;;;;;;;17.62;81.98;96384.13;5103728;28;20188;-52
2021/07/05 00:03:57;;;;;;;1.50;1.50;;;;;;;17.55;82.20;96386.28;5104287;28;20180;-55
2021/07/05 00:06:22;;;;;;;1.60;1.50;;;;;;;17.51;82.40;96383.41;5096930;28;20258;-52
2021/07/05 00:08:48;;;;;;;1.63;1.53;;;;;;;17.57;82.45;96376.19;5107954;28;20189;-54
2021/07/05 00:11:13;;;;;;;1.67;1.57;;;;;;;17.51;82.43;96385.25;5101963;28;20244;-55
2021/07/05 00:13:39;;;;;;;3.03;1.50;;;;;;;17.33;83.54;96381.47;5100586;28;20192;-52
2021/07/05 00:16:04;;;;;;;1.50;1.50;;;;;;;17.36;83.43;96389.63;5103388;28;20194;-53
2021/07/05 00:18:30;;;;;;;2.58;2.20;;;;;;;17.16;84.66;96389.81;5105043;28;20423;-54
2021/07/05 00:20:56;;;;;;;1.50;1.40;;;;;;;17.52;83.19;96384.97;5106646;28;20632;-55
2021/07/05 00:23:22;;;;;;;1.40;1.40;;;;;;;17.66;81.86;96378.00;5100149;28;20187;-52
2021/07/05 00:25:47;;;;;;;1.30;1.30;;;;;;;17.51;82.77;96377.31;5103439;28;20340;-58
2021/07/05 00:28:12;;;;;;;1.43;1.43;;;;;;;17.63;81.94;96375.88;5098080;28;20214;-50
2021/07/05 00:30:39;;;;;;;1.40;1.40;;;;;;;17.78;80.97;96380.22;5101918;28;20645;-52
2021/07/05 00:33:05;;;;;;;1.40;1.40;;;;;;;17.60;82.13;96368.50;5104049;28;20184;-49
2021/07/05 00:35:30;;;;;;;1.53;1.43;;;;;;;17.62;81.89;96378.81;5097719;28;20181;-53
2021/07/05 00:37:57;;;;;;;1.43;1.43;;;;;;;17.45;83.19;96376.56;5108734;28;20199;-50
2021/07/05 00:40:23;;;;;;;2.90;1.70;;;;;;;17.39;83.46;96382.97;5099248;28;20305;-55
2021/07/05 00:42:49;;;;;;;3.47;1.47;;;;;;;17.46;83.05;96386.88;5102767;28;20582;-58
2021/07/05 00:45:16;;;;;;;1.50;1.40;;;;;;;17.57;82.20;96382.28;5101658;28;20181;-53
2021/07/05 00:47:41;;;;;;;1.50;1.50;;;;;;;17.56;81.88;96387.84;5109372;28;20264;-55
2021/07/05 00:50:09;;;;;;;1.40;1.40;;;;;;;17.55;82.07;96381.00;5095799;28;20172;-54
2021/07/05 00:52:36;;;;;;;1.50;1.40;;;;;;;17.48;82.01;96380.53;5105332;28;20629;-52
2021/07/05 00:55:05;;;;;;;1.40;1.40;;;;;;;17.45;82.28;96373.91;5100302;28;20176;-54
2021/07/05 00:57:31;;;;;;;1.50;1.50;;;;;;;17.43;82.64;96371.56;5107628;28;20188;-54
2021/07/05 00:59:57;;;;;;;1.30;1.30;;;;;;;17.49;82.15;96382.91;5102224;28;20194;-52
2021/07/05 01:02:24;;;;;;;1.70;1.60;;;;;;;17.45;82.28;96385.31;5107759;28;20664;-55
2021/07/05 01:04:51;;;;;;;1.97;1.40;;;;;;;17.56;82.00;96388.66;5109242;28;20199;-57
2021/07/05 01:07:17;;;;;;;1.50;1.50;;;;;;;17.62;81.84;96392.84;5106315;28;20199;-53
2021/07/05 01:09:43;;;;;;;6.03;1.40;;;;;;;17.66;81.61;96385.16;5102752;28;20188;-54
2021/07/05 01:12:09;;;;;;;1.20;1.20;;;;;;;17.76;81.14;96380.53;5099872;28;20768;-55
2021/07/05 01:14:35;;;;;;;1.33;1.33;;;;;;;17.69;80.90;96376.63;5100503;28;20198;-57
2021/07/05 01:17:02;;;;;;;1.27;1.27;;;;;;;17.77;80.24;96376.81;5095683;28;20192;-58
2021/07/05 01:19:28;;;;;;;1.20;1.20;;;;;;;17.59;80.97;96368.75;5103476;28;20184;-56
2021/07/05 01:21:54;;;;;;;1.67;1.33;;;;;;;17.81;79.49;96356.63;5089397;28;20655;-53
2021/07/05 01:24:20;;;;;;;1.90;1.20;;;;;;;17.77;79.59;96360.91;5094080;28;20185;-55
2021/07/05 01:26:45;;;;;;;1.40;1.40;;;;;;;17.83;79.18;96356.34;5099937;28;20206;-54
2021/07/05 01:29:11;;;;;;;1.37;1.37;;;;;;;17.73;79.74;96348.47;5104674;28;20241;-56
2021/07/05 01:31:36;;;;;;;1.20;1.20;;;;;;;17.77;79.58;96352.16;5103066;28;20526;-57
2021/07/05 01:34:03;;;;;;;1.40;1.40;;;;;;;17.88;78.87;96344.88;5098299;28;20180;-56
2021/07/05 01:36:28;;;;;;;1.10;1.10;;;;;;;17.73;79.81;96346.63;5099649;28;20237;-54
2021/07/05 01:38:54;;;;;;;1.13;1.13;;;;;;;17.78;79.41;96351.84;5092044;28;20220;-55
2021/07/05 01:41:20;;;;;;;1.20;1.20;;;;;;;17.96;78.48;96344.22;5106517;28;20176;-56
2021/07/05 01:43:46;;;;;;;1.40;1.30;;;;;;;17.83;78.73;96348.38;5091465;28;20185;-55
2021/07/05 01:46:12;;;;;;;2.60;1.47;;;;;;;17.64;79.58;96350.19;5106015;28;20207;-56
2021/07/05 01:48:37;;;;;;;1.40;1.30;;;;;;;17.61;80.16;96350.75;5100164;28;20184;-55
2021/07/05 01:51:03;;;;;;;1.47;1.40;;;;;;;17.75;79.21;96352.44;5104083;28;20209;-56
2021/07/05 01:53:28;;;;;;;1.43;1.33;;;;;;;17.69;79.32;96347.47;5103094;28;20218;-56
2021/07/05 01:55:54;;;;;;;1.40;1.30;;;;;;;17.64;79.79;96350.97;5094385;28;20589;-54
2021/07/05 01:58:19;;;;;;;1.27;1.17;;;;;;;17.71;79.14;96338.19;5099480;28;20183;-53
2021/07/05 02:00:46;;;;;;;5.30;1.47;;;;;;;17.76;78.95;96330.16;5103448;28;20629;-55
2021/07/05 02:03:13;;;;;;;2.17;1.30;;;;;;;17.69;79.52;96331.56;5104154;28;20205;-51
2021/07/05 02:05:39;;;;;;;1.53;1.43;;;;;;;17.60;80.14;96336.72;5102316;28;20209;-56
2021/07/05 02:08:05;;;;;;;1.20;1.20;;;;;;;17.58;80.19;96345.97;5102719;28;20612;-56
2021/07/05 02:10:34;;;;;;;1.40;1.30;;;;;;;17.62;80.15;96331.91;5109495;28;20271;-55
2021/07/05 02:13:03;;;;;;;1.30;1.10;;;;;;;17.53;80.38;96330.91;5098796;28;20229;-53
2021/07/05 02:15:29;;;;;;;2.00;1.10;;;;;;;17.55;80.08;96328.00;5107403;28;20184;-51
2021/07/05 02:17:54;;;;;;;1.20;1.20;;;;;;;17.65;79.42;96327.91;5099297;28;20172;-56
2021/07/05 02:20:26;;;;;;;2.53;1.10;;;;;;;17.62;79.15;96329.25;5098799;28;20253;-56
2021/07/05 02:22:52;;;;;;;3.13;1.33;;;;;;;17.59;79.36;96327.16;5099458;28;20220;-60
2021/07/05 02:25:20;;;;;;;1.30;1.30;;;;;;;17.58;79.34;96328.22;5093754;28;20195;-55
2021/07/05 02:27:46;;;;;;;1.20;1.13;;;;;;;17.50;79.90;96333.34;5093915;28;20200;-54
2021/07/05 02:30:15;;;;;;;1.50;1.40;;;;;;;17.50;80.13;96342.06;5095566;28;20180;-55
2021/07/05 02:32:41;;;;;;;1.60;1.50;;;;;;;17.51;79.86;96334.91;5093276;28;20278;-54
2021/07/05 02:35:11;;;;;;;1.23;1.23;;;;;;;17.60;79.79;96325.31;5107622;28;20259;-56
2021/07/05 02:37:38;;;;;;;1.47;1.30;;;;;;;17.51;80.14;96329.59;5110493;28;20176;-55
2021/07/05 02:40:07;;;;;;;1.47;1.37;;;;;;;17.59;79.44;96326.34;5095347;28;20310;-55
2021/07/05 02:42:32;;;;;;;1.07;1.07;;;;;;;17.59;79.35;96326.34;5103663;28;20257;-55
2021/07/05 02:44:58;;;;;;;1.23;1.23;;;;;;;17.66;78.74;96327.63;5102352;28;20652;-55
2021/07/05 02:47:23;;;;;;;1.27;1.27;;;;;;;17.59;78.97;96332.44;5109570;28;20200;-53
2021/07/05 02:49:48;;;;;;;1.47;1.40;;;;;;;17.57;78.90;96323.19;5098471;28;20242;-59
2021/07/05 02:52:14;;;;;;;0.93;0.93;;;;;;;17.70;77.71;96326.00;5107943;28;20199;-54
2021/07/05 02:54:39;;;;;;;1.43;1.20;;;;;;;17.74;77.88;96328.84;5102970;28;20633;-56
2021/07/05 02:57:06;;;;;;;1.13;1.13;;;;;;;17.62;78.13;96337.19;5094187;28;20192;-55
2021/07/05 02:59:31;;;;;;;1.17;1.17;;;;;;;17.66;77.87;96326.84;5111395;28;20180;-54
2021/07/05 03:01:57;;;;;;;1.20;1.20;;;;;;;17.51;78.95;96334.91;5095539;28;20178;-55
2021/07/05 03:04:22;;;;;;;1.20;1.20;;;;;;;17.61;77.98;96334.84;5093089;28;20195;-53
2021/07/05 03:06:47;;;;;;;1.40;1.30;;;;;;;17.57;78.16;96347.81;5102109;28;20208;-55
2021/07/05 03:09:13;;;;;;;1.40;1.30;;;;;;;17.63;78.06;96338.00;5099812;28;20172;-54
2021/07/05 03:11:38;;;;;;;1.37;1.27;;;;;;;17.63;78.29;96333.47;5113121;28;20187;-56
2021/07/05 03:14:04;;;;;;;2.67;1.30;;;;;;;17.57;78.38;96337.22;5092142;28;20708;-54
2021/07/05 03:16:29;;;;;;;1.30;1.30;;;;;;;17.60;78.54;96326.09;5096911;28;20192;-55
2021/07/05 03:18:55;;;;;;;1.57;1.57;;;;;;;17.59;78.58;96337.75;5098785;28;20188;-53
2021/07/05 03:21:20;;;;;;;1.93;1.37;;;;;;;17.68;78.00;96336.06;5092478;28;20269;-56
2021/07/05 03:23:45;;;;;;;1.20;1.20;;;;;;;17.65;78.35;96330.56;5102509;28;20208;-56
2021/07/05 03:26:11;;;;;;;1.33;1.33;;;;;;;17.70;78.00;96325.19;5101820;28;20239;-57
2021/07/05 03:28:36;;;;;;;1.53;1.10;;;;;;;17.72;78.06;96323.81;5104407;28;20180;-55
2021/07/05 03:31:02;;;;;;;1.30;1.30;;;;;;;17.84;77.45;96316.25;5112324;28;20184;-55
2021/07/05 03:33:27;;;;;;;1.30;1.30;;;;;;;17.73;77.96;96319.31;5111034;28;20594;-56
2021/07/05 03:35:53;;;;;;;1.23;1.23;;;;;;;17.78;78.10;96329.84;5099323;28;20189;-59
2021/07/05 03:38:19;;;;;;;1.30;1.20;;;;;;;17.71;78.24;96335.53;5094749;28;20223;-52
2021/07/05 03:40:46;;;;;;;1.23;1.23;;;;;;;17.77;78.30;96344.22;5110058;28;20172;-52
2021/07/05 03:43:12;;;;;;;1.20;1.10;;;;;;;17.80;77.88;96344.41;5112412;28;20534;-55
2021/07/05 03:45:38;;;;;;;1.47;1.37;;;;;;;17.90;77.50;96329.44;5113422;28;20663;-56
2021/07/05 03:48:05;;;;;;;1.53;1.43;;;;;;;17.76;77.88;96324.84;5095937;28;20583;-54
2021/07/05 03:50:32;;;;;;;1.17;1.10;;;;;;;17.70;78.34;96330.50;5106172;28;20856;-55
2021/07/05 03:52:57;;;;;;;1.67;1.40;;;;;;;17.71;78.27;96318.81;5104764;28;20184;-56
2021/07/05 03:55:24;;;;;;;1.30;1.30;;;;;;;17.79;78.10;96320.84;5105358;28;20184;-54
2021/07/05 03:57:51;;;;;;;1.00;1.00;;;;;;;17.74;78.38;96315.59;5096936;28;20180;-59
2021/07/05 04:00:20;;;;;;;1.30;1.30;;;;;;;17.68;78.70;96312.22;5112971;28;20183;-59
2021/07/05 04:02:46;;;;;;;1.50;1.43;;;;;;;17.76;78.43;96314.25;5113374;28;20676;-54
2021/07/05 04:05:12;;;;;;;2.17;1.20;;;;;;;17.80;78.11;96311.81;5091630;28;20266;-56
2021/07/05 04:07:39;;;;;;;1.40;1.37;;;;;;;17.79;78.09;96310.22;5109964;28;20287;-55
2021/07/05 04:10:06;;;;;;;2.20;1.43;;;;;;;17.78;78.13;96311.31;5097341;28;20280;-51
2021/07/05 04:12:33;;;;;;;1.20;1.20;;;;;;;17.90;77.58;96306.38;5106142;28;20195;-54
2021/07/05 04:14:58;;;;;;;1.30;1.20;;;;;;;17.76;77.94;96313.47;5100965;28;20181;-55
2021/07/05 04:17:24;;;;;;;2.57;2.30;;;;;;;17.77;78.06;96315.03;5095346;28;20195;-54
2021/07/05 04:19:49;;;;;;;1.60;1.50;;;;;;;17.90;77.65;96316.19;5093710;28;20710;-60
2021/07/05 04:22:16;;;;;;;1.20;1.10;;;;;;;17.94;77.55;96323.31;5091099;28;20180;-54
2021/07/05 04:24:42;;;;;;;1.20;1.20;;;;;;;17.86;77.94;96326.59;5102358;28;20184;-56
2021/07/05 04:27:08;;;;;;;1.40;1.30;;;;;;;18.01;77.10;96317.66;5105588;28;20286;-54
2021/07/05 04:29:34;;;;;;;1.40;1.13;;;;;;;18.03;77.20;96326.13;5112057;28;20675;-55
2021/07/05 04:32:00;;;;;;;1.23;1.23;;;;;;;18.04;77.21;96339.09;5095789;28;20207;-55
2021/07/05 04:34:25;;;;;;;1.20;1.20;;;;;;;17.93;77.69;96350.13;5106531;28;20192;-55
2021/07/05 04:36:50;;;;;;;1.57;1.47;;;;;;;17.82;78.13;96342.28;5103328;28;20184;-59
2021/07/05 04:39:16;;;;;;;1.23;1.23;;;;;;;17.91;77.83;96339.00;5098291;28;20692;-53
2021/07/05 04:41:41;;;;;;;3.37;1.50;;;;;;;17.94;77.43;96349.06;5109724;28;20619;-54
2021/07/05 04:44:07;;;;;;;2.03;1.53;;;;;;;17.99;77.41;96349.00;5096360;28;20176;-58
2021/07/05 04:46:32;;;;;;;1.40;1.30;;;;;;;18.09;76.98;96348.84;5105120;28;20197;-55
2021/07/05 04:48:57;;;;;;;1.17;1.17;;;;;;;18.10;76.66;96356.53;5103809;28;20236;-55
2021/07/05 04:51:24;;;;;;;1.80;1.30;;;;;;;18.15;76.74;96339.75;5091562;28;20229;-53
2021/07/05 04:53:50;;;;;;;2.87;1.10;;;;;;;18.22;76.15;96340.22;5109127;28;20228;-54
2021/07/05 04:56:16;;;;;;;1.30;1.17;;;;;;;18.34;75.30;96332.59;5097357;28;20184;-53
2021/07/05 04:58:42;;;;;;;1.40;1.30;;;;;;;18.40;74.74;96325.34;5112921;28;20539;-56
2021/07/05 05:01:07;;;;;;;1.30;1.30;;;;;;;18.47;74.30;96320.47;5111536;28;20525;-56
2021/07/05 05:03:33;;;;;;;1.30;1.20;;;;;;;18.60;73.72;96314.47;5096446;28;20568;-55
2021/07/05 05:05:58;;;;;;;1.80;1.20;;;;;;;18.59;73.69;96318.22;5107490;28;20189;-56
2021/07/05 05:08:23;;;;;;;1.30;1.20;;;;;;;18.72;73.51;96329.97;5099273;28;20191;-55
2021/07/05 05:10:49;;;;;;;3.50;1.17;;;;;;;18.84;72.93;96319.66;5103680;28;20277;-53
2021/07/05 05:13:14;;;;;;;0.90;0.90;;;;;;;18.85;73.04;96305.31;5098444;28;20191;-55
2021/07/05 05:15:40;;;;;;;0.87;0.87;;;;;;;18.73;73.50;96302.31;5108560;28;20599;-55
2021/07/05 05:18:06;;;;;;;1.07;1.07;;;;;;;18.97;72.58;96311.75;5099257;28;20187;-52
2021/07/05 05:20:32;;;;;;;1.33;1.30;;;;;;;19.01;72.29;96322.56;5108824;28;20185;-54
2021/07/05 05:22:58;;;;;;;1.20;1.13;;;;;;;19.04;72.15;96317.47;5099828;28;20193;-55
2021/07/05 05:25:23;;;;;;;1.30;1.20;;;;;;;19.00;72.69;96321.78;5107043;28;20263;-54
2021/07/05 05:27:49;;;;;;;1.50;1.40;;;;;;;19.24;71.99;96324.28;5095500;28;20243;-56
2021/07/05 05:30:17;;;;;;;1.77;1.30;;;;;;;19.38;71.15;96333.09;5097829;28;20259;-55
2021/07/05 05:32:44;;;;;;;1.70;1.60;;;;;;;19.47;70.78;96341.19;5100031;28;20282;-52
2021/07/05 05:35:10;;;;;;;1.73;1.30;;;;;;;19.62;70.81;96348.09;5091067;28;20187;-52
2021/07/05 05:37:36;;;;;;;1.30;1.20;;;;;;;19.65;70.95;96343.00;5107415;28;20287;-53
2021/07/05 05:40:04;;;;;;;1.20;1.20;;;;;;;20.00;69.71;96354.03;5087280;28;20287;-54
2021/07/05 05:42:29;;;;;;;1.02;1.02;;;;;;;19.86;69.29;96348.72;5110719;28;20194;-55
2021/07/05 05:44:54;;;;;;;8.65;1.20;;;;;;;19.78;69.93;96357.38;5101305;28;20191;-60
2021/07/05 05:47:20;;;;;;;1.27;1.17;;;;;;;19.67;69.98;96354.09;5109800;28;20200;-59
2021/07/05 05:49:45;;;;;;;1.63;1.10;;;;;;;19.68;70.54;96363.66;5110261;28;20636;-55
2021/07/05 05:52:10;;;;;;;2.20;1.17;;;;;;;19.71;70.22;96363.09;5090592;28;20226;-55
2021/07/05 05:54:36;;;;;;;0.93;0.90;;;;;;;19.47;71.03;96352.63;5097683;28;20601;-55
2021/07/05 05:57:01;;;;;;;1.40;1.23;;;;;;;19.40;71.84;96351.38;5092899;28;20191;-57
2021/07/05 05:59:27;;;;;;;1.88;1.20;;;;;;;19.41;72.04;96359.06;5101364;28;20187;-55
2021/07/05 06:01:53;;;;;;;2.03;1.27;;;;;;;19.30;72.33;96354.22;5098735;28;20535;-56
2021/07/05 06:04:20;;;;;;;0.98;0.98;;;;;;;19.22;73.60;96358.38;5093759;28;20282;-58
2021/07/05 06:06:46;;;;;;;1.67;1.05;;;;;;;19.32;74.19;96338.78;5110241;28;20208;-58
2021/07/05 06:09:12;;;;;;;1.50;1.40;;;;;;;19.26;74.26;96339.97;5109248;28;20582;-58
2021/07/05 06:11:39;;;;;;;0.93;0.90;;;;;;;19.27;74.22;96344.19;5108966;28;20187;-57
2021/07/05 06:14:05;;;;;;;1.35;1.20;;;;;;;19.35;74.58;96346.16;5101120;28;20183;-57
2021/07/05 06:16:32;;;;;;;1.35;1.10;;;;;;;19.29;74.75;96350.78;5092783;28;20177;-58
2021/07/05 06:18:58;;;;;;;2.20;1.10;;;;;;;19.21;75.03;96351.47;5093029;28;20191;-60
2021/07/05 06:21:26;;;;;;;1.02;1.02;;;;;;;19.06;75.98;96346.38;5109973;28;20187;-56
2021/07/05 06:23:51;;;;;;;1.60;1.05;;;;;;;19.22;75.90;96352.25;5100448;28;20183;-53
2021/07/05 06:26:16;;;;;;;2.20;1.20;;;;;;;19.11;75.97;96344.44;5103871;28;20257;-55
2021/07/05 06:28:42;;;;;;;1.42;0.88;;;;;;;19.24;75.63;96340.25;5094428;28;20592;-56
2021/07/05 06:31:07;;;;;;;1.02;1.02;;;;;;;19.27;75.40;96334.38;5102183;28;20176;-55
2021/07/05 06:33:33;;;;;;;1.25;1.17;;;;;;;19.35;75.41;96336.31;5102216;28;20623;-58
2021/07/05 06:35:59;;;;;;;1.20;1.10;;;;;;;19.43;75.19;96340.19;5098491;28;20184;-57
2021/07/05 06:38:25;;;;;;;1.30;1.20;;;;;;;19.46;75.69;96339.63;5098745;28;20226;-57
2021/07/05 06:40:56;;;;;;;0.90;0.90;;;;;;;19.32;75.67;96339.59;5096111;28;20180;-56
2021/07/05 06:43:22;;;;;;;0.90;0.90;;;;;;;19.49;75.30;96339.03;5096755;28;20180;-55
2021/07/05 06:45:47;;;;;;;1.20;1.20;;;;;;;19.56;75.37;96354.63;5092381;28;20253;-57
2021/07/05 06:48:13;;;;;;;1.48;1.00;;;;;;;19.58;75.44;96347.91;5081112;28;20208;-56
2021/07/05 06:50:38;;;;;;;1.38;1.30;;;;;;;19.69;75.33;96351.16;5097167;28;20261;-57
2021/07/05 06:53:05;;;;;;;1.08;1.08;;;;;;;19.82;74.88;96347.72;5093180;28;20184;-56
2021/07/05 06:55:31;;;;;;;1.52;1.00;;;;;;;19.91;74.70;96348.59;5107400;28;20196;-54
2021/07/05 06:57:57;;;;;;;1.00;1.00;;;;;;;20.11;74.69;96350.09;5099813;28;20637;-58
2021/07/05 07:00:26;;;;;;;1.00;1.00;;;;;;;19.98;74.74;96356.19;5110455;28;20172;-56
2021/07/05 07:02:52;;;;;;;2.17;1.13;;;;;;;19.85;75.31;96355.91;5106665;28;20548;-54
2021/07/05 07:05:18;;;;;;;1.20;1.10;;;;;;;19.91;75.05;96348.59;5090590;28;20177;-55
2021/07/05 07:07:47;;;;;;;1.00;1.00;;;;;;;20.11;74.26;96348.22;5090547;28;20209;-54
2021/07/05 07:10:17;;;;;;;1.10;1.10;;;;;;;20.09;74.99;96354.91;5090338;28;20184;-54
2021/07/05 07:12:48;;;;;;;1.00;1.00;;;;;;;19.73;76.59;96350.28;5096798;28;20183;-57
2021/07/05 07:15:16;;;;;;;1.02;0.90;;;;;;;19.82;75.41;96359.16;5104237;28;20258;-56
2021/07/05 07:20:25;;;;;;;1.20;1.10;;;;;;;19.97;75.19;96355.41;5110947;28;20184;-55
2021/07/05 07:22:51;;;;;;;1.65;1.33;;;;;;;19.69;76.15;96351.94;5090638;28;20184;-55
2021/07/05 07:25:16;;;;;;;0.93;0.93;;;;;;;19.70;75.96;96352.75;5109873;28;20176;-56
2021/07/05 07:27:42;;;;;;;2.75;1.20;;;;;;;19.73;76.43;96354.81;5096130;28;20200;-57
2021/07/05 07:30:10;;;;;;;1.00;1.00;;;;;;;19.81;75.42;96352.25;5102483;28;20612;-55
2021/07/05 07:32:35;;;;;;;2.42;1.00;;;;;;;20.08;75.15;96348.00;5099679;28;20282;-56
2021/07/05 07:35:01;;;;;;;1.10;0.98;;;;;;;20.10;75.05;96349.28;5093415;28;20330;-56
2021/07/05 07:37:26;;;;;;;1.35;1.10;;;;;;;20.30;74.85;96342.75;5096000;28;20196;-57
2021/07/05 07:40:01;;;;;;;1.33;1.23;;;;;;;20.25;75.42;96353.50;5096947;28;20240;-57
2021/07/05 07:42:26;;;;;;;1.00;1.00;;;;;;;20.34;74.77;96343.75;5108407;28;20176;-56
2021/07/05 07:44:52;;;;;;;1.35;1.20;;;;;;;20.54;74.09;96345.97;5095502;28;20187;-58
2021/07/05 07:47:17;;;;;;;1.20;1.20;;;;;;;20.79;72.28;96346.50;5095959;28;20211;-55
2021/07/05 07:49:43;;;;;;;1.00;1.00;;;;;;;21.19;71.57;96345.53;5094937;28;20177;-56
2021/07/05 07:52:08;;;;;;;0.80;0.80;;;;;;;21.52;70.31;96346.00;5098582;28;20195;-54
2021/07/05 07:54:34;;;;;;;1.20;1.20;;;;;;;21.44;69.89;96344.88;5109097;28;20196;-57
2021/07/05 07:56:59;;;;;;;0.82;0.82;;;;;;;21.41;69.98;96339.38;5106373;28;20191;-58
2021/07/05 07:59:25;;;;;;;1.00;1.00;;;;;;;21.54;69.89;96341.16;5101941;28;20187;-55
2021/07/05 08:01:50;;;;;;;1.30;1.10;;;;;;;21.38;69.49;96351.44;5106200;28;20188;-56
2021/07/05 08:04:16;;;;;;;1.05;1.05;;;;;;;21.55;70.54;96350.75;5094205;28;20683;-56
2021/07/05 08:06:42;;;;;;;1.85;0.95;;;;;;;21.84;69.60;96348.38;5097985;28;20571;-56
2021/07/05 08:09:08;;;;;;;1.30;1.17;;;;;;;21.93;69.91;96346.50;5091318;28;20211;-56
2021/07/05 08:11:35;;;;;;;1.35;1.15;;;;;;;21.76;70.73;96338.44;5110767;28;20180;-57
2021/07/05 08:14:02;;;;;;;1.17;0.95;;;;;;;21.69;69.58;96348.75;5093425;28;20280;-58
2021/07/05 08:16:28;;;;;;;1.00;1.00;;;;;;;21.27;71.82;96350.13;5097459;28;20184;-56
2021/07/05 08:18:53;;;;;;;1.13;0.77;;;;;;;21.34;71.95;96352.38;5113174;28;20233;-57
2021/07/05 08:21:19;;;;;;;0.93;0.93;;;;;;;21.34;71.14;96352.38;5095040;28;20267;-55
2021/07/05 08:23:45;;;;;;;0.90;0.90;;;;;;;21.40;71.67;96354.56;5101948;28;20552;-57
2021/07/05 08:26:10;;;;;;;2.17;1.20;;;;;;;21.09;71.65;96354.53;5112221;28;20207;-57
2021/07/05 08:28:37;;;;;;;1.77;1.05;;;;;;;20.95;72.82;96351.16;5105029;28;20195;-57
2021/07/05 08:31:04;;;;;;;1.20;1.10;;;;;;;20.88;72.62;96342.00;5104971;28;20220;-57
2021/07/05 08:33:31;;;;;;;0.90;0.90;;;;;;;21.07;72.03;96346.03;5100102;28;20181;-59
2021/07/05 08:36:00;;;;;;;1.50;1.08;;;;;;;21.28;71.91;96346.38;5101268;28;20633;-60
2021/07/05 08:38:26;;;;;;;1.10;1.10;;;;;;;21.22;72.13;96349.47;5108872;28;20235;-58
2021/07/05 08:40:52;;;;;;;0.80;0.80;;;;;;;21.31;71.69;96353.75;5109007;28;20191;-56
2021/07/05 08:43:25;;;;;;;0.90;0.90;;;;;;;21.41;70.16;96350.03;5095163;28;20250;-59
2021/07/05 08:45:54;;;;;;;1.15;0.98;;;;;;;21.40;70.29;96356.47;5092300;28;20597;-56
2021/07/05 08:48:20;;;;;;;0.90;0.90;;;;;;;21.56;70.65;96350.44;5105599;28;20187;-57
2021/07/05 08:50:48;;;;;;;0.95;0.90;;;;;;;21.82;69.57;96339.88;5091362;28;20184;-57
2021/07/05 08:53:15;;;;;;;1.20;0.80;;;;;;;21.57;70.07;96340.53;5098207;28;20992;-55
2021/07/05 08:55:41;;;;;;;0.90;0.90;;;;;;;21.61;70.01;96343.41;5094919;28;20220;-57
2021/07/05 08:58:07;;;;;;;0.93;0.93;;;;;;;21.44;70.88;96334.22;5108298;28;20187;-54
2021/07/05 09:00:33;;;;;;;0.88;0.88;;;;;;;21.49;70.42;96343.97;5096315;28;20720;-56
2021/07/05 09:03:00;;;;;;;1.65;0.90;;;;;;;21.72;70.27;96326.81;5110667;28;20259;-58
2021/07/05 09:05:26;;;;;;;0.90;0.90;;;;;;;21.93;69.82;96333.16;5100991;28;20550;-58
2021/07/05 09:07:54;;;;;;;1.88;0.80;;;;;;;22.10;67.67;96332.44;5107206;28;20207;-56
2021/07/05 09:10:20;;;;;;;0.90;0.90;;;;;;;22.16;67.88;96333.06;5094344;28;20250;-56
2021/07/05 09:12:45;;;;;;;0.80;0.80;;;;;;;22.00;67.70;96330.06;5111129;28;20195;-56
2021/07/05 09:15:13;;;;;;;0.70;0.70;;;;;;;21.75;68.98;96334.19;5099786;28;20193;-58
2021/07/05 09:17:42;;;;;;;0.90;0.90;;;;;;;21.89;69.01;96334.88;5108009;28;20255;-58
2021/07/05 09:20:13;;;;;;;1.00;1.00;;;;;;;22.24;68.68;96332.28;5107502;28;20179;-56
2021/07/05 09:23:07;;;;;;;1.08;1.08;;;;;;;22.34;69.24;96335.47;5100147;28;20218;-59
2021/07/05 09:25:37;;;;;;;0.90;0.90;;;;;;;22.40;69.31;96334.19;5096836;28;20670;-57
2021/07/05 09:28:04;;;;;;;0.70;0.70;;;;;;;22.34;67.67;96334.69;5094601;28;20204;-57
2021/07/05 09:30:41;;;;;;;0.77;0.77;;;;;;;21.90;67.48;96333.00;5110529;28;20202;-57
2021/07/05 09:33:20;;;;;;;0.70;0.70;;;;;;;21.89;66.91;96334.88;5100178;28;20192;-58
2021/07/05 09:35:48;;;;;;;0.50;0.50;;;;;;;21.84;66.17;96347.56;5092766;28;20258;-58
2021/07/05 09:38:27;;;;;;;0.70;0.70;;;;;;;21.83;66.38;96344.13;5106442;28;20341;-55
2021/07/05 09:40:52;;;;;;;0.63;0.63;;;;;;;21.45;68.24;96353.69;5098252;28;20484;-58
2021/07/05 09:43:23;;;;;;;0.60;0.60;;;;;;;21.22;69.55;96355.59;5103250;28;20241;-57
2021/07/05 09:45:50;;;;;;;0.77;0.77;;;;;;;21.04;71.04;96353.88;5109888;28;20232;-56
2021/07/05 09:48:16;;;;;;;0.95;0.80;;;;;;;20.58;72.86;96359.47;5093669;28;20968;-59
2021/07/05 09:50:42;;;;;;;0.90;0.90;;;;;;;20.19;74.80;96358.13;5096007;28;20596;-58
2021/07/05 09:53:29;;;;;;;0.70;0.70;;;;;;;19.86;77.25;96360.13;5102841;28;20629;-55
2021/07/05 09:56:14;;;;;;;0.82;0.82;;;;;;;19.91;78.89;96353.91;5098962;28;20276;-57
2021/07/05 09:58:39;;;;;;;2.40;1.00;;;;;;;20.35;78.06;96342.66;5094259;28;20192;-58
2021/07/05 10:01:05;;;;;;;1.55;0.80;;;;;;;20.46;77.51;96338.69;5093096;28;20525;-56
2021/07/05 10:03:35;;;;;;;0.82;0.82;;;;;;;20.55;77.71;96344.09;5107015;28;20195;-55
2021/07/05 10:06:20;;;;;;;0.82;0.82;;;;;;;20.58;77.39;96335.50;5093450;28;20250;-55
2021/07/05 10:08:46;;;;;;;0.80;0.80;;;;;;;20.58;77.71;96333.63;5105822;28;20195;-56
2021/07/05 10:11:13;;;;;;;1.00;1.00;;;;;;;20.58;78.01;96336.28;5105456;28;20863;-55
2021/07/05 10:13:38;;;;;;;1.80;1.00;;;;;;;20.42;77.23;96337.72;5105908;28;20183;-57
2021/07/05 10:16:08;;;;;;;0.93;0.90;;;;;;;20.14;79.48;96328.19;5099350;28;20175;-57
2021/07/05 10:18:34;;;;;;;1.10;1.10;;;;;;;20.23;79.28;96329.84;5104410;28;20183;-56
2021/07/05 10:21:01;;;;;;;1.65;0.90;;;;;;;20.20;79.46;96329.66;5098016;28;20625;-56
2021/07/05 10:23:27;;;;;;;1.20;1.20;;;;;;;20.11;80.17;96334.91;5092559;28;20172;-55
2021/07/05 10:25:53;;;;;;;1.10;1.10;;;;;;;20.15;80.55;96329.75;5094091;28;20192;-57
2021/07/05 10:28:19;;;;;;;0.90;0.90;;;;;;;20.16;79.33;96323.38;5105442;28;20176;-57
2021/07/05 10:30:47;;;;;;;0.95;0.95;;;;;;;20.21;79.62;96323.25;5107130;28;20185;-57
2021/07/05 10:33:13;;;;;;;1.00;1.00;;;;;;;20.42;79.77;96327.06;5092655;28;20206;-57
2021/07/05 10:35:42;;;;;;;1.10;1.10;;;;;;;20.58;78.92;96325.63;5100194;28;20510;-58
2021/07/05 10:38:32;;;;;;;1.20;1.20;;;;;;;20.60;78.56;96318.16;5104778;28;20184;-59
2021/07/05 10:41:11;;;;;;;1.00;1.00;;;;;;;20.57;78.35;96310.75;5095397;28;20633;-59
2021/07/05 10:43:55;;;;;;;1.30;1.20;;;;;;;20.70;78.24;96315.25;5094362;28;20188;-56
2021/07/05 10:46:39;;;;;;;0.80;0.80;;;;;;;20.83;76.86;96315.50;5106624;28;20188;-60
2021/07/05 10:49:29;;;;;;;0.90;0.90;;;;;;;20.95;75.71;96313.84;5097713;28;20184;-57
2021/07/05 10:51:59;;;;;;;0.90;0.90;;;;;;;20.93;76.24;96320.56;5096934;28;20196;-58
2021/07/05 10:54:55;;;;;;;1.00;1.00;;;;;;;21.00;75.97;96307.59;5107212;28;20184;-58
2021/07/05 10:57:22;;;;;;;0.80;0.80;;;;;;;21.22;75.23;96304.16;5102083;28;20318;-58
2021/07/05 10:59:49;;;;;;;1.27;1.27;;;;;;;21.40;74.27;96305.81;5102520;28;20529;-59
2021/07/05 11:02:41;;;;;;;1.10;1.10;;;;;;;21.26;74.44;96305.91;5101076;28;20199;-56
2021/07/05 11:05:29;;;;;;;1.40;1.10;;;;;;;21.28;74.88;96306.38;5093232;28;20211;-55
2021/07/05 11:07:57;;;;;;;1.20;0.77;;;;;;;21.48;74.12;96297.06;5105702;28;20211;-59
2021/07/05 11:10:30;;;;;;;1.60;1.13;;;;;;;21.34;74.61;96305.16;5109570;28;20215;-56
2021/07/05 11:13:05;;;;;;;1.98;0.80;;;;;;;21.20;73.35;96311.66;5105971;28;20188;-59
2021/07/05 11:15:52;;;;;;;0.80;0.80;;;;;;;21.20;73.79;96304.44;5100923;28;20190;-54
2021/07/05 11:18:39;;;;;;;0.93;0.93;;;;;;;21.87;71.98;96305.03;5095550;28;20480;-58
2021/07/05 11:21:10;;;;;;;2.58;0.85;;;;;;;22.72;68.38;96300.94;5101898;28;20181;-57
2021/07/05 11:23:54;;;;;;;0.70;0.70;;;;;;;22.83;67.33;96300.59;5097195;28;20263;-57
2021/07/05 11:26:22;;;;;;;0.80;0.80;;;;;;;22.71;68.00;96298.53;5102712;28;20209;-58
2021/07/05 11:29:08;;;;;;;1.20;1.10;;;;;;;22.92;67.19;96294.13;5107014;28;20275;-58
2021/07/05 11:31:58;;;;;;;1.73;0.93;;;;;;;23.44;64.93;96299.34;5107713;28;20191;-58
2021/07/05 11:34:38;;;;;;;1.13;0.98;;;;;;;23.54;64.07;96299.03;5110705;28;20214;-57
2021/07/05 11:37:18;;;;;;;0.82;0.82;;;;;;;23.26;64.50;96305.84;5104139;28;20328;-58
2021/07/05 11:39:46;;;;;;;0.93;0.85;;;;;;;22.99;64.90;96301.69;5096201;28;20231;-57